Time;durP1;ratioP1;P1;durP2;ratioP2;P2;SDS_P1;SDS_P2;PMS_P1;PMS_P2;Temp;Humidity;BMP_temperature;BMP_pressure;BME280_temperature;BME280_humidity;BME280_pressure;Samples;Min_cycle;Max_cycle;Signal;HPM_P1;HPM_P2
2022/06/30 00:01:50;;;;;;;24.75;16.60;;;;;;;18.61;100.00;100904.69;5052624;28;20387;-63
2022/06/30 00:04:15;;;;;;;24.55;16.90;;;;;;;18.62;100.00;100902.88;5052801;28;20479;-63
2022/06/30 00:06:40;;;;;;;24.38;16.02;;;;;;;18.61;100.00;100910.06;5052500;28;20025;-63
2022/06/30 00:09:06;;;;;;;25.05;15.93;;;;;;;18.58;100.00;100907.47;5052489;28;20031;-63
2022/06/30 00:11:31;;;;;;;24.85;16.83;;;;;;;18.54;100.00;100905.78;5052915;28;20056;-63
2022/06/30 00:13:57;;;;;;;23.42;15.32;;;;;;;18.58;100.00;100896.75;5052402;28;20078;-63
2022/06/30 00:16:23;;;;;;;25.58;16.30;;;;;;;18.54;100.00;100895.09;5052245;28;20040;-63
2022/06/30 00:18:48;;;;;;;25.55;15.60;;;;;;;18.48;100.00;100884.56;5052688;28;20017;-63
2022/06/30 00:21:14;;;;;;;26.05;17.02;;;;;;;18.47;100.00;100886.34;5052645;28;20048;-63
2022/06/30 00:23:39;;;;;;;24.55;16.35;;;;;;;18.53;100.00;100885.28;5052493;28;20025;-63
2022/06/30 00:26:06;;;;;;;25.25;16.48;;;;;;;18.43;100.00;100879.31;5052124;28;20017;-63
2022/06/30 00:28:31;;;;;;;23.77;15.60;;;;;;;18.31;100.00;100874.31;5052422;28;20119;-63
2022/06/30 00:30:57;;;;;;;25.73;16.88;;;;;;;18.18;100.00;100870.22;5052585;28;20535;-62
2022/06/30 00:33:23;;;;;;;25.85;17.60;;;;;;;18.04;100.00;100878.59;5052292;28;20033;-63
2022/06/30 00:35:49;;;;;;;25.80;17.20;;;;;;;17.96;100.00;100878.78;5052101;28;20024;-63
2022/06/30 00:38:14;;;;;;;25.38;17.42;;;;;;;17.85;100.00;100881.69;5052346;28;20028;-63
2022/06/30 00:40:45;;;;;;;27.15;17.67;;;;;;;17.87;100.00;100881.69;5052366;28;20028;-63
2022/06/30 00:43:12;;;;;;;25.65;17.25;;;;;;;17.97;100.00;100879.66;5053911;28;20504;-62
2022/06/30 00:45:47;;;;;;;25.67;17.90;;;;;;;17.98;100.00;100884.97;5056741;28;20207;-62
2022/06/30 00:48:13;;;;;;;26.10;16.98;;;;;;;17.92;100.00;100880.66;5056422;28;20044;-63
2022/06/30 00:50:39;;;;;;;25.35;17.83;;;;;;;17.89;100.00;100880.69;5056013;28;20045;-63
2022/06/30 00:53:06;;;;;;;27.17;18.73;;;;;;;17.78;100.00;100886.34;5056138;28;20150;-63
2022/06/30 00:55:33;;;;;;;27.85;17.55;;;;;;;17.83;100.00;100885.34;5056088;28;20518;-63
2022/06/30 00:58:04;;;;;;;25.80;17.40;;;;;;;17.90;100.00;100887.84;5052256;28;20029;-64
2022/06/30 01:00:33;;;;;;;27.02;17.92;;;;;;;17.92;100.00;100890.47;5056138;28;20029;-63
2022/06/30 01:02:59;;;;;;;26.42;18.00;;;;;;;17.86;100.00;100888.81;5052003;28;20495;-63
2022/06/30 01:05:26;;;;;;;25.40;17.40;;;;;;;17.86;100.00;100880.78;5055863;28;20029;-63
2022/06/30 01:07:53;;;;;;;26.58;18.23;;;;;;;17.91;100.00;100889.63;5055880;28;20055;-64
2022/06/30 01:13:02;;;;;;;24.77;17.67;;;;;;;17.85;100.00;100881.69;5052472;28;20404;-65
2022/06/30 01:15:28;;;;;;;26.55;18.42;;;;;;;17.88;100.00;100883.41;5055581;28;20025;-65
2022/06/30 01:17:53;;;;;;;25.80;18.17;;;;;;;17.83;100.00;100885.34;5055615;28;20060;-63
2022/06/30 01:20:26;;;;;;;25.13;17.27;;;;;;;17.80;100.00;100888.09;5055822;28;20032;-63
2022/06/30 01:22:51;;;;;;;;;;;;;;;17.84;100.00;100889.75;5055862;28;20028;-63
2022/06/30 01:25:16;;;;;;;26.37;18.27;;;;;;;17.77;100.00;100889.91;5055680;28;19908;-64
2022/06/30 01:27:41;;;;;;;24.83;17.10;;;;;;;17.69;100.00;100883.91;5055642;28;20781;-63
2022/06/30 01:30:08;;;;;;;25.63;17.67;;;;;;;17.67;100.00;100890.19;5055531;28;20489;-63
2022/06/30 01:32:33;;;;;;;25.90;17.48;;;;;;;17.58;100.00;100893.97;5055357;28;20036;-65
2022/06/30 01:34:59;;;;;;;25.60;17.38;;;;;;;17.52;100.00;100896.78;5055521;28;20075;-65
2022/06/30 01:37:25;;;;;;;24.65;17.42;;;;;;;17.50;100.00;100898.59;5055202;28;20472;-65
2022/06/30 01:39:51;;;;;;;26.35;19.08;;;;;;;17.50;100.00;100895.94;5055293;28;20377;-64
2022/06/30 01:42:16;;;;;;;26.92;19.25;;;;;;;17.41;100.00;100895.22;5055666;28;20033;-65
2022/06/30 01:44:41;;;;;;;27.00;18.83;;;;;;;17.47;100.00;100893.34;5055503;28;20040;-63
2022/06/30 01:47:09;;;;;;;25.38;18.63;;;;;;;17.45;100.00;100900.53;5055182;28;20033;-65
2022/06/30 01:49:34;;;;;;;25.13;17.33;;;;;;;17.33;100.00;100899.88;5054932;28;20057;-64
2022/06/30 01:52:00;;;;;;;25.65;17.75;;;;;;;17.32;100.00;100899.91;5054916;28;20571;-64
2022/06/30 01:54:25;;;;;;;26.33;18.63;;;;;;;17.21;100.00;100898.38;5055006;28;20017;-63
2022/06/30 01:56:50;;;;;;;26.85;18.80;;;;;;;17.24;100.00;100892.06;5055321;28;20100;-63
2022/06/30 01:59:16;;;;;;;28.45;19.17;;;;;;;17.16;100.00;100889.56;5054878;28;20017;-63
2022/06/30 02:01:41;;;;;;;27.17;19.90;;;;;;;17.12;100.00;100900.34;5055349;28;20036;-63
2022/06/30 02:06:51;;;;;;;25.70;18.40;;;;;;;17.07;100.00;100904.00;5054940;28;20454;-63
2022/06/30 02:09:17;;;;;;;26.50;18.98;;;;;;;17.05;100.00;100905.84;5054577;28;20036;-63
2022/06/30 02:11:42;;;;;;;26.95;19.63;;;;;;;16.96;100.00;100908.69;5054817;28;20029;-63
2022/06/30 02:14:07;;;;;;;27.33;18.88;;;;;;;17.01;100.00;100908.63;5054645;28;20107;-63
2022/06/30 02:16:33;;;;;;;27.40;18.40;;;;;;;16.96;100.00;100902.47;5054716;28;20044;-62
2022/06/30 02:18:58;;;;;;;26.83;19.02;;;;;;;16.86;100.00;100912.44;5054706;28;20024;-63
2022/06/30 02:21:24;;;;;;;25.67;19.20;;;;;;;16.83;100.00;100912.50;5054311;28;20388;-63
2022/06/30 02:23:51;;;;;;;26.70;19.25;;;;;;;16.68;100.00;100911.88;5054384;28;20029;-63
2022/06/30 02:26:17;;;;;;;27.02;19.05;;;;;;;16.66;100.00;100913.72;5054718;28;20099;-63
2022/06/30 02:28:42;;;;;;;25.45;17.70;;;;;;;16.64;100.00;100910.19;5054300;28;20579;-63
2022/06/30 02:31:07;;;;;;;30.33;18.33;;;;;;;16.59;100.00;100917.41;5054318;28;20422;-63
2022/06/30 02:33:33;;;;;;;26.35;19.48;;;;;;;16.44;100.00;100931.03;5054684;28;20052;-62
2022/06/30 02:35:58;;;;;;;27.35;19.23;;;;;;;16.32;100.00;100925.00;5054109;28;20036;-63
2022/06/30 02:38:24;;;;;;;27.38;19.02;;;;;;;16.34;100.00;100915.22;5054203;28;20041;-63
2022/06/30 02:40:49;;;;;;;27.05;19.77;;;;;;;16.42;100.00;100911.53;5054237;28;20025;-63
2022/06/30 02:43:14;;;;;;;26.17;18.33;;;;;;;16.40;100.00;100908.88;5054014;28;20025;-62
2022/06/30 02:45:39;;;;;;;26.88;18.60;;;;;;;16.38;100.00;100911.59;5054271;28;20029;-63
2022/06/30 02:48:05;;;;;;;27.25;19.00;;;;;;;16.34;100.00;100909.88;5054292;28;20037;-62
2022/06/30 02:50:31;;;;;;;25.48;17.90;;;;;;;16.23;100.00;100914.53;5053760;28;20124;-64
2022/06/30 02:52:57;;;;;;;27.33;18.92;;;;;;;16.18;100.00;100917.28;5053943;28;20064;-64
2022/06/30 02:55:23;;;;;;;26.85;19.17;;;;;;;16.13;100.00;100907.59;5053956;28;20029;-64
2022/06/30 02:57:49;;;;;;;28.55;19.77;;;;;;;16.12;100.00;100912.06;5053774;28;20109;-64
2022/06/30 03:00:14;;;;;;;29.73;20.58;;;;;;;16.16;100.00;100910.22;5053911;28;20020;-63
2022/06/30 03:02:40;;;;;;;28.40;21.50;;;;;;;16.12;100.00;100908.50;5053731;28;20025;-63
2022/06/30 03:05:07;;;;;;;28.15;21.83;;;;;;;16.04;100.00;100906.84;5052981;28;20024;-64
2022/06/30 03:07:32;;;;;;;28.88;20.00;;;;;;;15.99;100.00;100907.84;5053834;28;20063;-64
2022/06/30 03:09:58;;;;;;;27.20;20.13;;;;;;;15.95;100.00;100906.13;5053726;28;20048;-65
2022/06/30 03:12:23;;;;;;;27.45;19.67;;;;;;;15.84;100.00;100909.88;5053689;28;20435;-65
2022/06/30 03:14:48;;;;;;;27.58;20.08;;;;;;;15.84;100.00;100891.22;5053627;28;20037;-62
2022/06/30 03:17:14;;;;;;;28.33;20.90;;;;;;;15.81;100.00;100893.94;5053774;28;20024;-63
2022/06/30 03:19:39;;;;;;;27.48;19.40;;;;;;;15.72;100.00;100895.81;5053467;28;20013;-63
2022/06/30 03:22:05;;;;;;;26.95;19.45;;;;;;;15.72;100.00;100898.50;5053279;28;20025;-63
2022/06/30 03:24:30;;;;;;;25.85;17.85;;;;;;;15.73;100.00;100900.22;5053056;28;20029;-64
2022/06/30 03:26:55;;;;;;;27.38;18.90;;;;;;;15.74;100.00;100899.34;5053246;28;20373;-63
2022/06/30 03:29:21;;;;;;;26.42;19.23;;;;;;;15.72;100.00;100887.81;5053513;28;20103;-63
2022/06/30 03:31:46;;;;;;;26.65;20.20;;;;;;;15.76;100.00;100894.88;5053087;28;20021;-64
2022/06/30 03:34:11;;;;;;;27.08;19.00;;;;;;;15.71;100.00;100889.59;5053364;28;20024;-63
2022/06/30 03:36:37;;;;;;;26.20;18.05;;;;;;;15.59;100.00;100897.81;5052913;28;20028;-63
2022/06/30 03:39:03;;;;;;;26.23;18.60;;;;;;;15.59;100.00;100897.81;5052923;28;20100;-63
2022/06/30 03:41:28;;;;;;;26.77;19.50;;;;;;;15.50;100.00;100893.50;5053317;28;20124;-64
2022/06/30 03:43:53;;;;;;;25.70;18.13;;;;;;;15.55;100.00;100896.06;5052867;28;20060;-63
2022/06/30 03:46:19;;;;;;;26.35;18.75;;;;;;;15.47;100.00;100890.88;5053124;28;20021;-63
2022/06/30 03:48:44;;;;;;;27.73;17.88;;;;;;;15.53;100.00;100890.78;5053080;28;20063;-62
2022/06/30 03:51:11;;;;;;;27.08;19.23;;;;;;;15.48;100.00;100895.31;5052657;28;20044;-63
2022/06/30 03:53:36;;;;;;;27.80;18.77;;;;;;;15.48;100.00;100892.66;5053022;28;20079;-64
2022/06/30 03:56:02;;;;;;;29.15;20.00;;;;;;;15.48;100.00;100892.66;5052674;28;20100;-63
2022/06/30 03:58:27;;;;;;;30.42;20.80;;;;;;;15.46;100.00;100881.13;5052952;28;20068;-63
2022/06/30 04:00:52;;;;;;;28.73;20.20;;;;;;;15.43;100.00;100881.16;5053117;28;20017;-63
2022/06/30 04:03:18;;;;;;;29.35;19.73;;;;;;;15.43;100.00;100881.16;5052715;28;20024;-63
2022/06/30 04:05:43;;;;;;;29.25;20.52;;;;;;;15.55;100.00;100875.63;5052810;28;20033;-63
2022/06/30 04:08:08;;;;;;;27.77;19.48;;;;;;;15.52;100.00;100887.25;5052804;28;20062;-62
2022/06/30 04:10:34;;;;;;;26.33;19.27;;;;;;;15.48;100.00;100882.00;5052454;28;20440;-63
2022/06/30 04:13:00;;;;;;;27.70;19.48;;;;;;;15.51;100.00;100881.94;5052388;28;20024;-63
2022/06/30 04:15:29;;;;;;;27.52;19.30;;;;;;;15.54;100.00;100878.31;5052511;28;20403;-63
2022/06/30 04:17:54;;;;;;;27.08;18.85;;;;;;;15.62;100.00;100876.44;5052697;28;20036;-62
2022/06/30 04:20:20;;;;;;;28.58;19.67;;;;;;;15.66;100.00;100879.00;5052635;28;20372;-63
2022/06/30 04:22:50;;;;;;;27.35;19.02;;;;;;;15.67;100.00;100880.78;5052543;28;20108;-63
2022/06/30 04:25:16;;;;;;;30.92;20.70;;;;;;;15.65;100.00;100895.03;5052431;28;20052;-63
2022/06/30 04:27:52;;;;;;;30.10;21.15;;;;;;;15.49;100.00;100905.94;5052395;28;20032;-63
2022/06/30 04:33:03;;;;;;;30.95;21.77;;;;;;;15.56;100.00;100900.50;5048850;28;20124;-62
2022/06/30 04:35:29;;;;;;;27.83;20.95;;;;;;;15.73;100.00;100905.56;5052353;28;20061;-63
2022/06/30 04:37:58;;;;;;;27.67;20.27;;;;;;;15.87;100.00;100903.59;5052063;28;20055;-63
2022/06/30 04:43:07;;;;;;;30.50;23.63;;;;;;;16.00;100.00;100899.84;5049326;28;20079;-63
2022/06/30 04:45:33;;;;;;;30.40;24.02;;;;;;;16.14;100.00;100912.03;5052664;28;20029;-63
2022/06/30 04:47:58;;;;;;;29.90;24.25;;;;;;;16.17;100.00;100947.50;5052072;28;20091;-62
2022/06/30 04:50:23;;;;;;;32.58;25.05;;;;;;;16.23;100.00;100929.66;5052042;28;20048;-63
2022/06/30 04:52:49;;;;;;;31.45;27.42;;;;;;;16.20;100.00;100934.13;5051957;28;20446;-63
2022/06/30 04:55:14;;;;;;;32.60;27.70;;;;;;;16.13;100.00;100955.59;5051851;28;20464;-62
2022/06/30 04:57:39;;;;;;;33.65;29.38;;;;;;;16.03;100.00;100926.44;5052320;28;20053;-63
2022/06/30 05:00:05;;;;;;;33.47;29.33;;;;;;;15.99;100.00;100938.06;5052305;28;20017;-62
2022/06/30 05:02:31;;;;;;;34.08;30.30;;;;;;;15.93;100.00;100951.50;5052236;28;20033;-63
2022/06/30 05:04:56;;;;;;;34.90;30.20;;;;;;;15.93;100.00;100932.81;5052090;28;20095;-63
2022/06/30 05:07:21;;;;;;;35.92;32.03;;;;;;;15.92;100.00;100940.84;5051773;28;20484;-63
2022/06/30 05:09:47;;;;;;;36.05;32.15;;;;;;;15.90;100.00;100947.97;5052094;28;20029;-63
2022/06/30 05:12:12;;;;;;;36.58;32.58;;;;;;;15.91;100.00;100928.41;5052159;28;20138;-63
2022/06/30 05:14:37;;;;;;;38.33;34.22;;;;;;;15.94;100.00;100934.56;5051863;28;20033;-65
2022/06/30 05:17:04;;;;;;;38.65;34.08;;;;;;;15.92;100.00;100935.53;5051989;28;20060;-63
2022/06/30 05:19:29;;;;;;;38.63;34.42;;;;;;;15.94;100.00;100934.56;5051903;28;20107;-64
2022/06/30 05:21:55;;;;;;;40.03;35.72;;;;;;;15.97;100.00;100937.19;5048675;28;20187;-68
2022/06/30 05:27:04;;;;;;;38.80;34.60;;;;;;;16.04;100.00;100933.50;5050216;28;20071;-70
2022/06/30 05:29:30;;;;;;;40.28;35.15;;;;;;;16.07;100.00;100942.38;5053125;28;20065;-68
2022/06/30 05:31:55;;;;;;;40.75;34.75;;;;;;;16.11;100.00;100939.63;5054232;28;20057;-66
2022/06/30 05:34:20;;;;;;;39.10;34.42;;;;;;;16.16;100.00;100943.09;5054656;28;20435;-66
2022/06/30 05:36:46;;;;;;;39.80;34.20;;;;;;;16.22;100.00;100939.44;5054368;28;20091;-68
2022/06/30 05:39:11;;;;;;;37.25;32.85;;;;;;;16.25;100.00;100952.75;5054761;28;20515;-68
2022/06/30 05:41:37;;;;;;;35.95;30.73;;;;;;;16.36;100.00;100942.72;5054260;28;20463;-67
2022/06/30 05:44:02;;;;;;;36.03;29.63;;;;;;;16.37;100.00;100946.28;5054012;28;20468;-67
2022/06/30 05:46:28;;;;;;;34.42;28.40;;;;;;;16.36;100.00;100942.72;5054264;28;20025;-67
2022/06/30 05:48:53;;;;;;;34.03;26.73;;;;;;;16.38;100.00;100953.38;5054434;28;20545;-62
2022/06/30 05:51:18;;;;;;;31.75;25.52;;;;;;;16.32;100.00;100954.34;5054015;28;20064;-64
2022/06/30 05:53:43;;;;;;;30.52;23.58;;;;;;;16.29;100.00;100954.41;5053416;28;20037;-63
2022/06/30 05:56:09;;;;;;;31.25;23.75;;;;;;;16.26;100.00;100949.13;5054263;28;20029;-63
2022/06/30 05:58:35;;;;;;;29.83;23.27;;;;;;;16.24;100.00;100953.63;5054362;28;20458;-63
2022/06/30 06:01:01;;;;;;;31.60;23.55;;;;;;;16.25;100.00;100952.75;5054267;28;20024;-64
2022/06/30 06:03:26;;;;;;;29.88;22.30;;;;;;;16.31;100.00;100949.94;5053681;28;20048;-63
2022/06/30 06:05:51;;;;;;;29.48;21.48;;;;;;;16.35;100.00;100945.44;5054161;28;20456;-64
2022/06/30 06:08:17;;;;;;;30.75;21.42;;;;;;;16.33;100.00;100948.13;5053694;28;20021;-64
2022/06/30 06:10:42;;;;;;;31.92;21.38;;;;;;;16.37;100.00;100949.84;5054318;28;20036;-65
2022/06/30 06:13:09;;;;;;;29.10;21.05;;;;;;;16.38;100.00;100956.03;5053643;28;20024;-63
2022/06/30 06:15:34;;;;;;;28.48;20.73;;;;;;;16.43;100.00;100966.66;5053748;28;20025;-64
2022/06/30 06:18:00;;;;;;;29.67;20.02;;;;;;;16.55;100.00;100953.06;5053644;28;20036;-64
2022/06/30 06:20:25;;;;;;;28.63;20.40;;;;;;;16.64;100.00;100960.03;5053171;28;20023;-64
2022/06/30 06:22:50;;;;;;;29.33;20.17;;;;;;;16.69;100.00;100964.38;5053830;28;20025;-63
2022/06/30 06:25:16;;;;;;;27.73;18.98;;;;;;;16.84;100.00;100968.53;5053650;28;20025;-64
2022/06/30 06:27:42;;;;;;;28.45;19.55;;;;;;;16.81;100.00;100962.38;5053901;28;20085;-64
2022/06/30 06:30:10;;;;;;;29.15;18.40;;;;;;;16.89;100.00;100966.69;5053702;28;20102;-65
2022/06/30 06:32:36;;;;;;;28.73;18.55;;;;;;;16.98;100.00;100973.63;5052741;28;20498;-63
2022/06/30 06:35:02;;;;;;;26.45;17.38;;;;;;;16.98;100.00;100972.72;5053464;28;20033;-63
2022/06/30 06:37:28;;;;;;;28.23;17.45;;;;;;;17.06;100.00;100978.81;5053312;28;20434;-64
2022/06/30 06:39:53;;;;;;;27.60;17.13;;;;;;;17.07;100.00;100975.25;5052410;28;20024;-65
2022/06/30 06:42:19;;;;;;;27.40;16.98;;;;;;;17.15;100.00;100980.41;5052340;28;20049;-64
2022/06/30 06:44:44;;;;;;;27.73;16.33;;;;;;;17.23;100.00;100978.47;5053389;28;20027;-65
2022/06/30 06:47:09;;;;;;;26.88;15.63;;;;;;;17.34;100.00;100979.09;5053423;28;20480;-63
2022/06/30 06:49:35;;;;;;;26.05;14.95;;;;;;;17.48;100.00;100985.97;5053054;28;20112;-63
2022/06/30 06:52:00;;;;;;;24.85;15.40;;;;;;;17.60;100.00;100986.56;5052424;28;20044;-63
2022/06/30 06:54:25;;;;;;;26.92;15.05;;;;;;;17.58;100.00;100992.84;5053005;28;20024;-65
2022/06/30 06:56:51;;;;;;;26.83;15.77;;;;;;;17.66;100.00;100990.88;5053868;28;20029;-64
2022/06/30 06:59:16;;;;;;;27.10;15.45;;;;;;;17.70;100.00;100997.03;5052754;28;20029;-64
2022/06/30 07:01:42;;;;;;;26.52;14.40;;;;;;;17.76;100.00;101000.44;5052416;28;20039;-64
2022/06/30 07:04:07;;;;;;;26.75;14.18;;;;;;;17.80;100.00;100995.03;5053231;28;20353;-64
2022/06/30 07:06:33;;;;;;;28.20;15.13;;;;;;;17.86;100.00;101000.25;5052524;28;20032;-64
2022/06/30 07:08:59;;;;;;;27.70;14.68;;;;;;;17.96;100.00;101006.28;5052763;28;20519;-66
2022/06/30 07:11:24;;;;;;;26.42;14.10;;;;;;;18.04;100.00;101005.19;5052861;28;20029;-63
2022/06/30 07:13:49;;;;;;;26.15;14.43;;;;;;;18.09;100.00;101013.97;5052382;28;20057;-64
2022/06/30 07:16:15;;;;;;;26.88;13.85;;;;;;;18.12;100.00;101019.25;5052823;28;20033;-65
2022/06/30 07:18:40;;;;;;;25.98;13.88;;;;;;;18.13;100.00;101022.81;5052463;28;20024;-64
2022/06/30 07:21:05;;;;;;;24.98;13.07;;;;;;;18.19;100.00;101021.75;5052551;28;20028;-64
2022/06/30 07:23:31;;;;;;;25.77;13.15;;;;;;;18.29;100.00;101034.03;5052070;28;20056;-64
2022/06/30 07:25:57;;;;;;;26.42;13.30;;;;;;;18.37;100.00;101033.81;5048724;28;20060;-64
2022/06/30 07:28:22;;;;;;;23.92;12.98;;;;;;;18.40;100.00;101039.97;5052608;28;20078;-64
2022/06/30 07:30:47;;;;;;;24.05;12.55;;;;;;;18.43;100.00;101025.63;5052246;28;20025;-64
2022/06/30 07:33:13;;;;;;;24.90;12.13;;;;;;;18.47;100.00;101028.19;5052055;28;20021;-63
2022/06/30 07:35:38;;;;;;;25.17;12.15;;;;;;;18.54;100.00;101022.69;5052505;28;20032;-64
2022/06/30 07:38:03;;;;;;;29.38;12.57;;;;;;;18.81;100.00;101015.69;5052675;28;20103;-66
2022/06/30 07:40:29;;;;;;;27.77;12.20;;;;;;;18.93;100.00;101010.06;5052110;28;20036;-63
2022/06/30 07:42:55;;;;;;;25.50;11.85;;;;;;;19.10;100.00;101014.91;5051480;28;20029;-63
2022/06/30 07:45:21;;;;;;;24.85;11.40;;;;;;;19.13;100.00;101017.53;5051860;28;20081;-63
2022/06/30 07:47:48;;;;;;;24.75;11.63;;;;;;;19.10;100.00;101017.59;5052010;28;20083;-64
2022/06/30 07:50:16;;;;;;;25.92;11.55;;;;;;;19.21;100.00;101016.41;5052115;28;20130;-63
2022/06/30 07:52:41;;;;;;;23.35;10.77;;;;;;;19.30;100.00;101021.53;5051717;28;20028;-63
2022/06/30 07:55:07;;;;;;;23.92;11.00;;;;;;;19.34;100.00;101024.06;5052307;28;20371;-63
2022/06/30 07:57:36;;;;;;;22.65;9.85;;;;;;;19.42;100.00;101039.03;5051479;28;20490;-63
2022/06/30 08:00:03;;;;;;;23.27;10.10;;;;;;;19.42;100.00;101029.19;5052023;28;20059;-63
2022/06/30 08:02:29;;;;;;;24.08;9.80;;;;;;;19.52;100.00;101021.75;5051870;28;20058;-63
2022/06/30 08:04:54;;;;;;;24.15;9.88;;;;;;;19.74;100.00;101019.28;5051624;28;20102;-63
2022/06/30 08:07:19;;;;;;;21.63;9.30;;;;;;;19.81;100.00;101010.16;5052220;28;20464;-63
2022/06/30 08:09:46;;;;;;;21.70;9.13;;;;;;;19.91;100.00;101017.94;5052810;28;20029;-63
2022/06/30 08:12:11;;;;;;;23.73;9.23;;;;;;;20.05;100.00;101012.13;5052549;28;20036;-63
2022/06/30 08:14:37;;;;;;;22.58;8.90;;;;;;;20.17;100.00;101017.09;5049201;28;20025;-65
2022/06/30 08:17:02;;;;;;;22.73;8.68;;;;;;;20.39;100.00;101014.56;5051798;28;20060;-65
2022/06/30 08:19:28;;;;;;;23.27;8.90;;;;;;;20.50;100.00;101020.44;5051495;28;20385;-66
2022/06/30 08:21:53;;;;;;;20.98;8.85;;;;;;;20.56;100.00;101016.66;5049033;28;20090;-67
2022/06/30 08:24:19;;;;;;;22.65;8.90;;;;;;;20.67;100.00;101030.63;5047568;28;20017;-69
2022/06/30 08:26:44;;;;;;;22.73;8.95;;;;;;;20.73;100.00;101024.16;5051461;28;20122;-65
2022/06/30 08:29:12;;;;;;;23.63;8.75;;;;;;;20.75;100.00;101019.63;5051437;28;20029;-69
2022/06/30 08:31:37;;;;;;;21.77;8.57;;;;;;;20.88;100.00;101031.69;5050865;28;20023;-69
2022/06/30 08:34:03;;;;;;;21.90;8.93;;;;;;;20.93;100.00;101030.66;5051335;28;20021;-69
2022/06/30 08:36:28;;;;;;;21.92;8.52;;;;;;;20.96;100.00;101033.22;5050737;28;20706;-70
2022/06/30 08:38:54;;;;;;;22.83;8.52;;;;;;;21.04;100.00;101023.94;5050308;28;20021;-71
2022/06/30 08:44:04;;;;;;;23.27;8.40;;;;;;;21.45;100.00;101031.41;5050667;28;20412;-70
2022/06/30 08:46:32;;;;;;;22.52;8.50;;;;;;;21.54;100.00;101030.22;5051235;28;20480;-68
2022/06/30 08:48:57;;;;;;;22.20;7.80;;;;;;;21.49;100.00;101032.16;5051304;28;20017;-66
2022/06/30 08:51:28;;;;;;;21.98;8.10;;;;;;;21.51;100.00;101024.94;5050779;28;20052;-63
2022/06/30 08:53:57;;;;;;;20.83;8.02;;;;;;;21.85;100.00;101029.88;5051230;28;20108;-64
2022/06/30 08:56:23;;;;;;;23.38;8.10;;;;;;;22.12;100.00;101027.03;5051134;28;20116;-63
2022/06/30 08:58:55;;;;;;;22.38;8.10;;;;;;;22.31;100.00;101032.50;5051587;28;20535;-63
2022/06/30 09:01:21;;;;;;;22.73;7.75;;;;;;;22.54;100.00;101031.56;5047736;28;20464;-63
2022/06/30 09:03:46;;;;;;;21.67;7.85;;;;;;;22.59;100.00;101032.25;5052237;28;20036;-63
2022/06/30 09:06:12;;;;;;;19.95;6.97;;;;;;;22.59;100.00;101037.63;5055215;28;20052;-64
2022/06/30 09:08:38;;;;;;;20.98;7.25;;;;;;;22.57;100.00;101039.53;5054538;28;20024;-64
2022/06/30 09:11:03;;;;;;;20.25;6.80;;;;;;;22.45;100.00;101034.63;5054903;28;20479;-64
2022/06/30 09:13:40;;;;;;;20.95;6.90;;;;;;;22.53;100.00;101035.22;5054086;28;20037;-63
2022/06/30 09:16:05;;;;;;;19.35;6.97;;;;;;;22.80;100.00;101035.84;5055210;28;20029;-66
2022/06/30 09:18:30;;;;;;;19.55;6.95;;;;;;;22.94;100.00;101029.81;5054839;28;20147;-65
2022/06/30 09:20:56;;;;;;;20.05;7.28;;;;;;;23.20;100.00;101033.22;5054076;28;20025;-64
2022/06/30 09:23:27;;;;;;;21.58;7.32;;;;;;;23.46;99.27;101041.91;5054842;28;20092;-63
2022/06/30 09:25:58;;;;;;;21.02;7.32;;;;;;;23.61;94.87;101035.78;5054646;28;20037;-63
2022/06/30 09:28:43;;;;;;;19.85;6.75;;;;;;;23.72;95.22;101037.09;5054882;28;20041;-63
2022/06/30 09:31:11;;;;;;;19.50;6.68;;;;;;;23.62;91.43;101037.56;5052059;28;20025;-63
2022/06/30 09:33:39;;;;;;;18.83;6.43;;;;;;;23.66;91.96;101031.06;5054712;28;20059;-63
2022/06/30 09:36:28;;;;;;;19.75;6.50;;;;;;;23.82;93.26;101039.31;5054537;28;20025;-63
2022/06/30 09:39:02;;;;;;;20.63;7.03;;;;;;;24.07;91.11;101039.94;5054377;28;20028;-63
2022/06/30 09:41:35;;;;;;;19.75;6.60;;;;;;;24.56;85.31;101037.47;5053266;28;20039;-63
2022/06/30 09:44:04;;;;;;;18.48;5.60;;;;;;;25.20;86.52;101043.19;5054364;28;20024;-63
2022/06/30 09:46:30;;;;;;;19.58;6.43;;;;;;;25.13;79.43;101041.78;5054374;28;20430;-63
2022/06/30 09:48:55;;;;;;;20.55;6.55;;;;;;;25.12;81.87;101040.03;5054793;28;20480;-63
2022/06/30 09:51:20;;;;;;;20.05;6.18;;;;;;;25.09;79.22;101048.31;5055038;28;20134;-63
2022/06/30 09:54:06;;;;;;;19.42;6.32;;;;;;;25.02;82.51;101043.22;5055294;28;20029;-63
2022/06/30 09:56:31;;;;;;;19.73;6.28;;;;;;;25.28;80.01;101046.38;5055021;28;20509;-63
2022/06/30 09:58:57;;;;;;;19.33;5.35;;;;;;;25.38;75.02;101041.34;5055194;28;20108;-63
2022/06/30 10:01:22;;;;;;;19.52;6.10;;;;;;;25.55;78.01;101045.84;5054760;28;20060;-64
2022/06/30 10:03:59;;;;;;;18.38;6.28;;;;;;;25.83;76.69;101052.41;5052091;28;20021;-64
2022/06/30 10:06:25;;;;;;;18.77;5.80;;;;;;;25.93;74.15;101053.63;5054039;28;20104;-69
2022/06/30 10:08:52;;;;;;;19.10;5.63;;;;;;;26.35;74.13;101044.00;5053957;28;20104;-68
2022/06/30 10:11:17;;;;;;;20.63;6.15;;;;;;;27.08;69.18;101054.09;5052767;28;20476;-68
2022/06/30 10:13:43;;;;;;;17.77;5.32;;;;;;;27.49;66.72;101055.22;5052585;28;20033;-69
2022/06/30 10:16:10;;;;;;;18.38;5.95;;;;;;;28.67;62.90;101057.50;5050962;28;20028;-69
2022/06/30 10:18:38;;;;;;;18.42;5.90;;;;;;;29.79;52.92;101055.94;5054083;28;20028;-69
2022/06/30 10:21:04;;;;;;;17.52;5.50;;;;;;;29.36;46.70;101051.78;5051491;28;20029;-65
2022/06/30 10:23:31;;;;;;;18.13;5.72;;;;;;;29.45;48.04;101044.81;5052720;28;20032;-65
2022/06/30 10:25:56;;;;;;;18.63;5.00;;;;;;;30.87;46.29;101038.78;5051936;28;20024;-65
2022/06/30 10:28:25;;;;;;;17.95;4.15;;;;;;;32.86;37.58;101043.53;5053436;28;20037;-65
2022/06/30 10:31:02;;;;;;;15.95;4.18;;;;;;;34.47;35.51;101051.91;5053812;28;20025;-65
2022/06/30 10:33:52;;;;;;;17.23;4.60;;;;;;;33.61;37.60;101036.88;5053476;28;20021;-65
2022/06/30 10:36:32;;;;;;;16.83;4.78;;;;;;;31.52;39.06;101042.72;5053058;28;20063;-65
2022/06/30 10:39:06;;;;;;;15.80;4.50;;;;;;;30.48;41.88;101044.53;5054168;28;20369;-64
2022/06/30 10:41:32;;;;;;;17.08;4.47;;;;;;;30.77;39.68;101042.25;5050373;28;20036;-69
2022/06/30 10:44:03;;;;;;;16.73;4.40;;;;;;;30.43;40.07;101044.00;5054316;28;20029;-64
2022/06/30 10:46:33;;;;;;;15.52;4.20;;;;;;;31.37;38.24;101039.41;5050146;28;20064;-65
2022/06/30 10:48:59;;;;;;;16.23;4.90;;;;;;;32.51;36.65;101040.06;5049886;28;20464;-65
2022/06/30 10:51:26;;;;;;;18.05;4.70;;;;;;;33.70;33.37;101044.25;5053874;28;20048;-65
2022/06/30 10:53:52;;;;;;;15.70;4.53;;;;;;;35.18;31.12;101040.56;5053739;28;20021;-65
2022/06/30 10:56:19;;;;;;;17.33;5.00;;;;;;;36.67;29.28;101042.31;5054062;28;20472;-65
2022/06/30 10:59:04;;;;;;;15.70;4.65;;;;;;;36.46;29.38;101029.75;5054022;28;20371;-65
2022/06/30 11:01:30;;;;;;;16.05;4.40;;;;;;;33.50;33.16;101021.38;5050249;28;20017;-65
2022/06/30 11:03:56;;;;;;;18.10;5.07;;;;;;;32.57;35.61;101033.19;5053625;28;20388;-65
2022/06/30 11:06:26;;;;;;;17.98;5.10;;;;;;;31.17;36.66;101045.59;5053602;28;20111;-65
2022/06/30 11:08:57;;;;;;;15.07;4.50;;;;;;;29.56;41.25;101044.91;5053816;28;20376;-64
2022/06/30 11:11:23;;;;;;;;;;;;;;;29.20;43.24;101043.81;5054283;28;20095;-64
2022/06/30 11:13:49;;;;;;;15.50;4.20;;;;;;;27.62;45.54;101031.75;5053506;28;19920;-65
2022/06/30 11:16:15;;;;;;;16.33;4.45;;;;;;;28.14;47.97;101027.50;5053792;28;20067;-65
2022/06/30 11:18:41;;;;;;;17.30;4.97;;;;;;;28.76;43.38;101031.50;5053480;28;20029;-64
2022/06/30 11:21:06;;;;;;;15.88;4.93;;;;;;;28.56;44.18;101032.84;5053399;28;20052;-65